PWSweather.com
Personal Weather Stations
Station Observations
WD4JKH
Forsyth, GA 31029

Forsyth, GA 31029

Lat: 33.033225, Lon: -83.927995

Elevation: 709

Station Type: Davis Vantage VUE

High Low Average
Temperature 68.1°F20.1°C 44.2°F6.8°C 55.2°F12.9°C
Dew Point 36.9°F2.7°C 32.8°F0.4°C 34.6°F1.4°C
Winds 6.4 mph 10.3 kmh Calm Calm 3.0 mph NW4.8 kmh NW
Wind Gusts 14.0 mph22.5 kmh 2.0 mph3.2 kmh 9.0 mph14.5 kmh
Humidity 65% 28% 47%
Pressure 30.28 in1025.4 mb 30.20 in1022.7 mb -
Precipitation 0.04 in1.0 mm - -
Hour Temp Dew Point Humidity Winds Wind Gusts Pressure Precip Precip Rate Daily Precip Total
12:00 AM 52.9°F11.6°C 33.1°F0.6°C 47% 4.7 mph NW7.6 kmh NW 9.0 mph14.5 kmh 30.20 in1022.7 mb 0.00 in0.0 mm 0.00 in0.0 mm 0.04 in1.0 mm
12:05 AM 52.8°F11.6°C 33.1°F0.6°C 47% 3.3 mph NW5.3 kmh NW 9.0 mph14.5 kmh 30.20 in1022.7 mb 0.00 in0.0 mm 0.00 in0.0 mm 0.00 in0.0 mm
12:10 AM 52.6°F11.4°C 33.4°F0.8°C 48% 2.7 mph NW4.3 kmh NW 9.0 mph14.5 kmh 30.20 in1022.7 mb 0.00 in0.0 mm 0.00 in0.0 mm 0.00 in0.0 mm
12:13 AM 52.7°F11.5°C 33.0°F0.6°C 47% 5.2 mph NW8.4 kmh NW 10.0 mph16.1 kmh 30.20 in1022.7 mb 0.00 in0.0 mm 0.00 in0.0 mm 0.00 in0.0 mm
12:19 AM 52.5°F11.4°C 32.8°F0.4°C 47% 4.5 mph NW7.2 kmh NW 10.0 mph16.1 kmh 30.20 in1022.7 mb 0.00 in0.0 mm 0.00 in0.0 mm 0.00 in0.0 mm
12:23 AM 52.4°F11.3°C 33.2°F0.7°C 48% 4.3 mph NW6.9 kmh NW 10.0 mph16.1 kmh 30.20 in1022.7 mb 0.00 in0.0 mm 0.00 in0.0 mm 0.00 in0.0 mm
12:29 AM 52.4°F11.3°C 33.2°F0.7°C 48% 3.9 mph NW6.3 kmh NW 11.0 mph17.7 kmh 30.20 in1022.7 mb 0.00 in0.0 mm 0.00 in0.0 mm 0.00 in0.0 mm
12:34 AM 52.3°F11.3°C 33.1°F0.6°C 48% 3.4 mph NW5.5 kmh NW 11.0 mph17.7 kmh 30.20 in1022.7 mb 0.00 in0.0 mm 0.00 in0.0 mm 0.00 in0.0 mm
12:39 AM 52.2°F11.2°C 33.0°F0.6°C 48% 3.3 mph NW5.3 kmh NW 11.0 mph17.7 kmh 30.20 in1022.7 mb 0.00 in0.0 mm 0.00 in0.0 mm 0.00 in0.0 mm
12:44 AM 52.0°F11.1°C 33.4°F0.8°C 49% 2.5 mph NW4.0 kmh NW 10.0 mph16.1 kmh 30.20 in1022.7 mb 0.00 in0.0 mm 0.00 in0.0 mm 0.00 in0.0 mm
12:49 AM 52.0°F11.1°C 33.4°F0.8°C 49% 1.9 mph NW3.1 kmh NW 11.0 mph17.7 kmh 30.20 in1022.7 mb 0.00 in0.0 mm 0.00 in0.0 mm 0.00 in0.0 mm
12:54 AM 51.8°F11.0°C 33.2°F0.7°C 49% 3.3 mph NW5.3 kmh NW 11.0 mph17.7 kmh 30.20 in1022.7 mb 0.00 in0.0 mm 0.00 in0.0 mm 0.00 in0.0 mm
12:59 AM 51.8°F11.0°C 33.2°F0.7°C 49% 3.0 mph NW4.8 kmh NW 11.0 mph17.7 kmh 30.20 in1022.7 mb 0.00 in0.0 mm 0.00 in0.0 mm 0.00 in0.0 mm
01:04 AM 51.6°F10.9°C 33.0°F0.6°C 49% 2.3 mph NW3.7 kmh NW 11.0 mph17.7 kmh 30.20 in1022.7 mb 0.00 in0.0 mm 0.00 in0.0 mm 0.00 in0.0 mm
01:09 AM 51.5°F10.8°C 32.9°F0.5°C 49% 3.3 mph NW5.3 kmh NW 10.0 mph16.1 kmh 30.21 in1023.0 mb 0.00 in0.0 mm 0.00 in0.0 mm 0.00 in0.0 mm
01:14 AM 51.3°F10.7°C 33.3°F0.7°C 50% 2.5 mph NW4.0 kmh NW 9.0 mph14.5 kmh 30.20 in1022.7 mb 0.00 in0.0 mm 0.00 in0.0 mm 0.00 in0.0 mm
01:19 AM 51.1°F10.6°C 33.1°F0.6°C 50% 2.6 mph NW4.2 kmh NW 8.0 mph12.9 kmh 30.20 in1022.7 mb 0.00 in0.0 mm 0.00 in0.0 mm 0.00 in0.0 mm
01:24 AM 51.1°F10.6°C 33.1°F0.6°C 50% 5.0 mph NW8.0 kmh NW 9.0 mph14.5 kmh 30.20 in1022.7 mb 0.00 in0.0 mm 0.00 in0.0 mm 0.00 in0.0 mm
01:29 AM 51.0°F10.6°C 33.0°F0.6°C 50% 3.4 mph NW5.5 kmh NW 9.0 mph14.5 kmh 30.21 in1023.0 mb 0.00 in0.0 mm 0.00 in0.0 mm 0.00 in0.0 mm
01:34 AM 51.0°F10.6°C 33.0°F0.6°C 50% 4.4 mph NW7.1 kmh NW 9.0 mph14.5 kmh 30.21 in1023.0 mb 0.00 in0.0 mm 0.00 in0.0 mm 0.00 in0.0 mm
01:39 AM 50.8°F10.4°C 32.8°F0.4°C 50% 3.6 mph NW5.8 kmh NW 9.0 mph14.5 kmh 30.21 in1023.0 mb 0.00 in0.0 mm 0.00 in0.0 mm 0.00 in0.0 mm
01:44 AM 50.7°F10.4°C 33.2°F0.7°C 51% 4.0 mph NW6.4 kmh NW 9.0 mph14.5 kmh 30.21 in1023.0 mb 0.00 in0.0 mm 0.00 in0.0 mm 0.00 in0.0 mm
01:49 AM 50.5°F10.3°C 33.0°F0.6°C 51% 2.6 mph NW4.2 kmh NW 9.0 mph14.5 kmh 30.21 in1023.0 mb 0.00 in0.0 mm 0.00 in0.0 mm 0.00 in0.0 mm
01:54 AM 50.3°F10.2°C 33.3°F0.7°C 52% 3.6 mph NW5.8 kmh NW 10.0 mph16.1 kmh 30.21 in1023.0 mb 0.00 in0.0 mm 0.00 in0.0 mm 0.00 in0.0 mm
01:59 AM 50.2°F10.1°C 33.2°F0.7°C 52% 3.4 mph NW5.5 kmh NW 10.0 mph16.1 kmh 30.21 in1023.0 mb 0.00 in0.0 mm 0.00 in0.0 mm 0.00 in0.0 mm
02:04 AM 50.0°F10.0°C 33.5°F0.8°C 53% 3.4 mph NW5.5 kmh NW 10.0 mph16.1 kmh 30.21 in1023.0 mb 0.00 in0.0 mm 0.00 in0.0 mm 0.00 in0.0 mm
02:09 AM 49.9°F9.9°C 33.5°F0.8°C 53% 3.8 mph NW6.1 kmh NW 10.0 mph16.1 kmh 30.22 in1023.4 mb 0.00 in0.0 mm 0.00 in0.0 mm 0.00 in0.0 mm
02:14 AM 49.7°F9.8°C 33.3°F0.7°C 53% 2.0 mph NW3.2 kmh NW 9.0 mph14.5 kmh 30.22 in1023.4 mb 0.00 in0.0 mm 0.00 in0.0 mm 0.00 in0.0 mm
02:19 AM 49.6°F9.8°C 33.7°F0.9°C 54% 2.6 mph NW4.2 kmh NW 9.0 mph14.5 kmh 30.21 in1023.0 mb 0.00 in0.0 mm 0.00 in0.0 mm 0.00 in0.0 mm
02:24 AM 49.4°F9.7°C 33.0°F0.6°C 53% 3.1 mph NW5.0 kmh NW 9.0 mph14.5 kmh 30.22 in1023.4 mb 0.00 in0.0 mm 0.00 in0.0 mm 0.00 in0.0 mm
02:29 AM 49.4°F9.7°C 33.5°F0.8°C 54% 3.9 mph NW6.3 kmh NW 9.0 mph14.5 kmh 30.22 in1023.4 mb 0.00 in0.0 mm 0.00 in0.0 mm 0.00 in0.0 mm
02:34 AM 49.4°F9.7°C 33.5°F0.8°C 54% 2.9 mph NW4.7 kmh NW 9.0 mph14.5 kmh 30.22 in1023.4 mb 0.00 in0.0 mm 0.00 in0.0 mm 0.00 in0.0 mm
02:39 AM 49.5°F9.7°C 33.6°F0.9°C 54% 4.5 mph NW7.2 kmh NW 9.0 mph14.5 kmh 30.22 in1023.4 mb 0.00 in0.0 mm 0.00 in0.0 mm 0.00 in0.0 mm
02:44 AM 49.4°F9.7°C 33.5°F0.8°C 54% 2.1 mph NW3.4 kmh NW 9.0 mph14.5 kmh 30.22 in1023.4 mb 0.00 in0.0 mm 0.00 in0.0 mm 0.00 in0.0 mm
02:49 AM 49.3°F9.6°C 33.4°F0.8°C 54% 3.5 mph NW5.6 kmh NW 9.0 mph14.5 kmh 30.22 in1023.4 mb 0.00 in0.0 mm 0.00 in0.0 mm 0.00 in0.0 mm
02:54 AM 49.3°F9.6°C 33.4°F0.8°C 54% 4.0 mph NW6.4 kmh NW 11.0 mph17.7 kmh 30.22 in1023.4 mb 0.00 in0.0 mm 0.00 in0.0 mm 0.00 in0.0 mm
02:59 AM 49.2°F9.6°C 33.3°F0.7°C 54% 3.0 mph NW4.8 kmh NW 11.0 mph17.7 kmh 30.22 in1023.4 mb 0.00 in0.0 mm 0.00 in0.0 mm 0.00 in0.0 mm
03:04 AM 49.1°F9.5°C 33.2°F0.7°C 54% 4.2 mph NNW6.8 kmh NNW 11.0 mph17.7 kmh 30.22 in1023.4 mb 0.00 in0.0 mm 0.00 in0.0 mm 0.00 in0.0 mm
03:09 AM 49.0°F9.4°C 33.1°F0.6°C 54% 2.3 mph NNW3.7 kmh NNW 11.0 mph17.7 kmh 30.22 in1023.4 mb 0.00 in0.0 mm 0.00 in0.0 mm 0.00 in0.0 mm
03:14 AM 48.8°F9.3°C 33.3°F0.7°C 55% 2.8 mph NW4.5 kmh NW 11.0 mph17.7 kmh 30.22 in1023.4 mb 0.00 in0.0 mm 0.00 in0.0 mm 0.00 in0.0 mm
03:19 AM 48.7°F9.3°C 33.3°F0.7°C 55% 2.9 mph NW4.7 kmh NW 11.0 mph17.7 kmh 30.22 in1023.4 mb 0.00 in0.0 mm 0.00 in0.0 mm 0.00 in0.0 mm
03:24 AM 48.6°F9.2°C 33.2°F0.7°C 55% 4.3 mph NW6.9 kmh NW 10.0 mph16.1 kmh 30.22 in1023.4 mb 0.00 in0.0 mm 0.00 in0.0 mm 0.00 in0.0 mm
03:29 AM 48.4°F9.1°C 33.5°F0.8°C 56% 3.2 mph NW5.1 kmh NW 9.0 mph14.5 kmh 30.22 in1023.4 mb 0.00 in0.0 mm 0.00 in0.0 mm 0.00 in0.0 mm
03:34 AM 48.3°F9.1°C 33.4°F0.8°C 56% 3.8 mph NW6.1 kmh NW 9.0 mph14.5 kmh 30.22 in1023.4 mb 0.00 in0.0 mm 0.00 in0.0 mm 0.00 in0.0 mm
03:39 AM 48.1°F8.9°C 33.2°F0.7°C 56% 3.3 mph WNW5.3 kmh WNW 8.0 mph12.9 kmh 30.22 in1023.4 mb 0.00 in0.0 mm 0.00 in0.0 mm 0.00 in0.0 mm
03:44 AM 48.0°F8.9°C 33.5°F0.8°C 57% 2.2 mph NW3.5 kmh NW 10.0 mph16.1 kmh 30.22 in1023.4 mb 0.00 in0.0 mm 0.00 in0.0 mm 0.00 in0.0 mm
03:49 AM 47.8°F8.8°C 33.4°F0.8°C 57% 4.0 mph NW6.4 kmh NW 10.0 mph16.1 kmh 30.22 in1023.4 mb 0.00 in0.0 mm 0.00 in0.0 mm 0.00 in0.0 mm
03:54 AM 47.7°F8.7°C 33.3°F0.7°C 57% 4.0 mph WNW6.4 kmh WNW 10.0 mph16.1 kmh 30.22 in1023.4 mb 0.00 in0.0 mm 0.00 in0.0 mm 0.00 in0.0 mm
03:59 AM 47.6°F8.7°C 33.1°F0.6°C 57% 3.8 mph WNW6.1 kmh WNW 9.0 mph14.5 kmh 30.22 in1023.4 mb 0.00 in0.0 mm 0.00 in0.0 mm 0.00 in0.0 mm
04:04 AM 47.5°F8.6°C 33.5°F0.8°C 58% 3.1 mph WNW5.0 kmh WNW 9.0 mph14.5 kmh 30.22 in1023.4 mb 0.00 in0.0 mm 0.00 in0.0 mm 0.00 in0.0 mm
04:09 AM 47.3°F8.5°C 33.3°F0.7°C 58% 2.6 mph WNW4.2 kmh WNW 8.0 mph12.9 kmh 30.22 in1023.4 mb 0.00 in0.0 mm 0.00 in0.0 mm 0.00 in0.0 mm
04:14 AM 47.2°F8.4°C 33.2°F0.7°C 58% 3.4 mph NW5.5 kmh NW 9.0 mph14.5 kmh 30.22 in1023.4 mb 0.00 in0.0 mm 0.00 in0.0 mm 0.00 in0.0 mm
04:19 AM 47.0°F8.3°C 33.5°F0.8°C 59% 3.0 mph WNW4.8 kmh WNW 9.0 mph14.5 kmh 30.22 in1023.4 mb 0.00 in0.0 mm 0.00 in0.0 mm 0.00 in0.0 mm
04:24 AM 46.8°F8.2°C 33.3°F0.7°C 59% 1.9 mph WNW3.1 kmh WNW 9.0 mph14.5 kmh 30.22 in1023.4 mb 0.00 in0.0 mm 0.00 in0.0 mm 0.00 in0.0 mm
04:29 AM 46.7°F8.2°C 33.2°F0.7°C 59% 2.7 mph WNW4.3 kmh WNW 9.0 mph14.5 kmh 30.22 in1023.4 mb 0.00 in0.0 mm 0.00 in0.0 mm 0.00 in0.0 mm
04:34 AM 46.6°F8.1°C 33.0°F0.6°C 59% 1.7 mph WNW2.7 kmh WNW 7.0 mph11.3 kmh 30.22 in1023.4 mb 0.00 in0.0 mm 0.00 in0.0 mm 0.00 in0.0 mm
04:39 AM 46.5°F8.1°C 33.4°F0.8°C 60% 2.8 mph WNW4.5 kmh WNW 7.0 mph11.3 kmh 30.22 in1023.4 mb 0.00 in0.0 mm 0.00 in0.0 mm 0.00 in0.0 mm
04:44 AM 46.3°F7.9°C 33.2°F0.7°C 60% 2.1 mph WNW3.4 kmh WNW 8.0 mph12.9 kmh 30.22 in1023.4 mb 0.00 in0.0 mm 0.00 in0.0 mm 0.00 in0.0 mm
04:49 AM 46.3°F7.9°C 33.2°F0.7°C 60% 2.6 mph WNW4.2 kmh WNW 8.0 mph12.9 kmh 30.22 in1023.4 mb 0.00 in0.0 mm 0.00 in0.0 mm 0.00 in0.0 mm
04:54 AM 46.2°F7.9°C 33.1°F0.6°C 60% 2.5 mph WNW4.0 kmh WNW 8.0 mph12.9 kmh 30.22 in1023.4 mb 0.00 in0.0 mm 0.00 in0.0 mm 0.00 in0.0 mm
04:59 AM 46.1°F7.8°C 33.0°F0.6°C 60% 3.2 mph NW5.1 kmh NW 11.0 mph17.7 kmh 30.23 in1023.7 mb 0.00 in0.0 mm 0.00 in0.0 mm 0.00 in0.0 mm
05:04 AM 46.2°F7.9°C 33.6°F0.9°C 61% 4.1 mph WNW6.6 kmh WNW 11.0 mph17.7 kmh 30.23 in1023.7 mb 0.00 in0.0 mm 0.00 in0.0 mm 0.00 in0.0 mm
05:09 AM 46.1°F7.8°C 33.0°F0.6°C 60% 4.4 mph NW7.1 kmh NW 11.0 mph17.7 kmh 30.23 in1023.7 mb 0.00 in0.0 mm 0.00 in0.0 mm 0.00 in0.0 mm
05:13 AM 46.1°F7.8°C 33.1°F0.6°C 60% 3.5 mph NW5.6 kmh NW 11.0 mph17.7 kmh 30.23 in1023.7 mb 0.00 in0.0 mm 0.00 in0.0 mm 0.00 in0.0 mm
05:18 AM 46.1°F7.8°C 33.1°F0.6°C 60% 3.5 mph NW5.6 kmh NW 11.0 mph17.7 kmh 30.23 in1023.7 mb 0.00 in0.0 mm 0.00 in0.0 mm 0.00 in0.0 mm
05:23 AM 46.1°F7.8°C 33.0°F0.6°C 60% 3.4 mph NW5.5 kmh NW 10.0 mph16.1 kmh 30.23 in1023.7 mb 0.00 in0.0 mm 0.00 in0.0 mm 0.00 in0.0 mm
05:28 AM 46.0°F7.8°C 33.4°F0.8°C 61% 3.8 mph NW6.1 kmh NW 8.0 mph12.9 kmh 30.23 in1023.7 mb 0.00 in0.0 mm 0.00 in0.0 mm 0.00 in0.0 mm
05:33 AM 46.0°F7.8°C 33.4°F0.8°C 61% 2.9 mph WNW4.7 kmh WNW 8.0 mph12.9 kmh 30.23 in1023.7 mb 0.00 in0.0 mm 0.00 in0.0 mm 0.00 in0.0 mm
05:38 AM 45.8°F7.7°C 33.2°F0.7°C 61% 2.8 mph NW4.5 kmh NW 7.0 mph11.3 kmh 30.23 in1023.7 mb 0.00 in0.0 mm 0.00 in0.0 mm 0.00 in0.0 mm
05:43 AM 45.6°F7.6°C 33.0°F0.6°C 61% 2.5 mph NW4.0 kmh NW 7.0 mph11.3 kmh 30.23 in1023.7 mb 0.00 in0.0 mm 0.00 in0.0 mm 0.00 in0.0 mm
05:48 AM 45.6°F7.6°C 33.0°F0.6°C 61% 3.5 mph NW5.6 kmh NW 9.0 mph14.5 kmh 30.23 in1023.7 mb 0.00 in0.0 mm 0.00 in0.0 mm 0.00 in0.0 mm
05:53 AM 45.5°F7.5°C 33.3°F0.7°C 62% 2.6 mph NW4.2 kmh NW 9.0 mph14.5 kmh 30.23 in1023.7 mb 0.00 in0.0 mm 0.00 in0.0 mm 0.00 in0.0 mm
05:58 AM 45.3°F7.4°C 33.0°F0.6°C 62% 2.5 mph NW4.0 kmh NW 9.0 mph14.5 kmh 30.23 in1023.7 mb 0.00 in0.0 mm 0.00 in0.0 mm 0.00 in0.0 mm
06:03 AM 45.1°F7.3°C 32.9°F0.5°C 62% 3.6 mph NW5.8 kmh NW 10.0 mph16.1 kmh 30.24 in1024.0 mb 0.00 in0.0 mm 0.00 in0.0 mm 0.00 in0.0 mm
06:08 AM 45.1°F7.3°C 33.3°F0.7°C 63% 2.3 mph WNW3.7 kmh WNW 10.0 mph16.1 kmh 30.24 in1024.0 mb 0.00 in0.0 mm 0.00 in0.0 mm 0.00 in0.0 mm
06:13 AM 44.9°F7.2°C 33.2°F0.7°C 63% 2.9 mph NW4.7 kmh NW 10.0 mph16.1 kmh 30.23 in1023.7 mb 0.00 in0.0 mm 0.00 in0.0 mm 0.00 in0.0 mm
06:18 AM 44.9°F7.2°C 33.2°F0.7°C 63% 2.6 mph WNW4.2 kmh WNW 12.0 mph19.3 kmh 30.24 in1024.0 mb 0.00 in0.0 mm 0.00 in0.0 mm 0.00 in0.0 mm
06:23 AM 44.8°F7.1°C 33.4°F0.8°C 64% 2.4 mph NW3.9 kmh NW 12.0 mph19.3 kmh 30.24 in1024.0 mb 0.00 in0.0 mm 0.00 in0.0 mm 0.00 in0.0 mm
06:28 AM 44.7°F7.1°C 33.4°F0.8°C 64% 3.2 mph NW5.1 kmh NW 12.0 mph19.3 kmh 30.24 in1024.0 mb 0.00 in0.0 mm 0.00 in0.0 mm 0.00 in0.0 mm
06:33 AM 44.7°F7.1°C 33.4°F0.8°C 64% 2.3 mph NW3.7 kmh NW 12.0 mph19.3 kmh 30.24 in1024.0 mb 0.00 in0.0 mm 0.00 in0.0 mm 0.00 in0.0 mm
06:38 AM 44.5°F6.9°C 33.1°F0.6°C 64% 2.5 mph NW4.0 kmh NW 9.0 mph14.5 kmh 30.25 in1024.4 mb 0.00 in0.0 mm 0.00 in0.0 mm 0.00 in0.0 mm
06:43 AM 44.4°F6.9°C 33.1°F0.6°C 64% 2.7 mph NW4.3 kmh NW 9.0 mph14.5 kmh 30.25 in1024.4 mb 0.00 in0.0 mm 0.00 in0.0 mm 0.00 in0.0 mm
06:48 AM 44.4°F6.9°C 33.1°F0.6°C 64% 3.5 mph NW5.6 kmh NW 9.0 mph14.5 kmh 30.25 in1024.4 mb 0.00 in0.0 mm 0.00 in0.0 mm 0.00 in0.0 mm
06:53 AM 44.4°F6.9°C 33.1°F0.6°C 64% 4.7 mph NW7.6 kmh NW 10.0 mph16.1 kmh 30.25 in1024.4 mb 0.00 in0.0 mm 0.00 in0.0 mm 0.00 in0.0 mm
06:58 AM 44.4°F6.9°C 33.5°F0.8°C 65% 3.3 mph NW5.3 kmh NW 10.0 mph16.1 kmh 30.25 in1024.4 mb 0.00 in0.0 mm 0.00 in0.0 mm 0.00 in0.0 mm
07:03 AM 44.3°F6.8°C 33.0°F0.6°C 64% 4.8 mph WNW7.7 kmh WNW 10.0 mph16.1 kmh 30.26 in1024.7 mb 0.00 in0.0 mm 0.00 in0.0 mm 0.00 in0.0 mm
07:08 AM 44.3°F6.8°C 33.0°F0.6°C 64% 4.1 mph WNW6.6 kmh WNW 10.0 mph16.1 kmh 30.26 in1024.7 mb 0.00 in0.0 mm 0.00 in0.0 mm 0.00 in0.0 mm
07:13 AM 44.3°F6.8°C 33.4°F0.8°C 65% 3.5 mph WNW5.6 kmh WNW 10.0 mph16.1 kmh 30.26 in1024.7 mb 0.00 in0.0 mm 0.00 in0.0 mm 0.00 in0.0 mm
07:18 AM 44.3°F6.8°C 33.4°F0.8°C 65% 5.5 mph WNW8.9 kmh WNW 11.0 mph17.7 kmh 30.27 in1025.1 mb 0.00 in0.0 mm 0.00 in0.0 mm 0.00 in0.0 mm
07:23 AM 44.2°F6.8°C 33.3°F0.7°C 65% 2.8 mph NW4.5 kmh NW 11.0 mph17.7 kmh 30.27 in1025.1 mb 0.00 in0.0 mm 0.00 in0.0 mm 0.00 in0.0 mm
07:28 AM 44.3°F6.8°C 33.4°F0.8°C 65% 2.7 mph NW4.3 kmh NW 11.0 mph17.7 kmh 30.27 in1025.1 mb 0.00 in0.0 mm 0.00 in0.0 mm 0.00 in0.0 mm
07:33 AM 44.5°F6.9°C 33.2°F0.7°C 64% 3.6 mph NW5.8 kmh NW 13.0 mph20.9 kmh 30.27 in1025.1 mb 0.00 in0.0 mm 0.00 in0.0 mm 0.00 in0.0 mm
07:38 AM 44.7°F7.1°C 33.4°F0.8°C 64% 3.8 mph NW6.1 kmh NW 13.0 mph20.9 kmh 30.27 in1025.1 mb 0.00 in0.0 mm 0.00 in0.0 mm 0.00 in0.0 mm
07:43 AM 44.7°F7.1°C 33.7°F0.9°C 65% 2.5 mph NW4.0 kmh NW 13.0 mph20.9 kmh 30.27 in1025.1 mb 0.00 in0.0 mm 0.00 in0.0 mm 0.00 in0.0 mm
07:48 AM 44.8°F7.1°C 33.4°F0.8°C 64% 4.1 mph WNW6.6 kmh WNW 13.0 mph20.9 kmh 30.27 in1025.1 mb 0.00 in0.0 mm 0.00 in0.0 mm 0.00 in0.0 mm
07:53 AM 44.9°F7.2°C 33.5°F0.8°C 64% 4.3 mph WNW6.9 kmh WNW 13.0 mph20.9 kmh 30.27 in1025.1 mb 0.00 in0.0 mm 0.00 in0.0 mm 0.00 in0.0 mm
07:58 AM 44.9°F7.2°C 33.5°F0.8°C 64% 2.2 mph WNW3.5 kmh WNW 13.0 mph20.9 kmh 30.27 in1025.1 mb 0.00 in0.0 mm 0.00 in0.0 mm 0.00 in0.0 mm
08:03 AM 45.0°F7.2°C 33.6°F0.9°C 64% 3.8 mph NW6.1 kmh NW 13.0 mph20.9 kmh 30.27 in1025.1 mb 0.00 in0.0 mm 0.00 in0.0 mm 0.00 in0.0 mm
08:08 AM 45.1°F7.3°C 33.7°F0.9°C 64% 4.1 mph NW6.6 kmh NW 13.0 mph20.9 kmh 30.27 in1025.1 mb 0.00 in0.0 mm 0.00 in0.0 mm 0.00 in0.0 mm
08:13 AM 45.2°F7.3°C 33.8°F1.0°C 64% 2.9 mph WNW4.7 kmh WNW 11.0 mph17.7 kmh 30.27 in1025.1 mb 0.00 in0.0 mm 0.00 in0.0 mm 0.00 in0.0 mm
08:18 AM 45.5°F7.5°C 34.1°F1.2°C 64% 2.6 mph WNW4.2 kmh WNW 11.0 mph17.7 kmh 30.27 in1025.1 mb 0.00 in0.0 mm 0.00 in0.0 mm 0.00 in0.0 mm
08:23 AM 45.7°F7.6°C 34.3°F1.3°C 64% 4.4 mph NW7.1 kmh NW 11.0 mph17.7 kmh 30.27 in1025.1 mb 0.00 in0.0 mm 0.00 in0.0 mm 0.00 in0.0 mm
08:28 AM 45.9°F7.7°C 34.1°F1.2°C 63% 4.2 mph NW6.8 kmh NW 11.0 mph17.7 kmh 30.27 in1025.1 mb 0.00 in0.0 mm 0.00 in0.0 mm 0.00 in0.0 mm
08:33 AM 46.1°F7.8°C 34.2°F1.2°C 63% 2.6 mph NW4.2 kmh NW 11.0 mph17.7 kmh 30.27 in1025.1 mb 0.00 in0.0 mm 0.00 in0.0 mm 0.00 in0.0 mm
08:38 AM 46.4°F8.0°C 34.2°F1.2°C 62% 3.9 mph NW6.3 kmh NW 11.0 mph17.7 kmh 30.27 in1025.1 mb 0.00 in0.0 mm 0.00 in0.0 mm 0.00 in0.0 mm
08:43 AM 46.7°F8.2°C 34.5°F1.4°C 62% 4.6 mph WNW7.4 kmh WNW 10.0 mph16.1 kmh 30.27 in1025.1 mb 0.00 in0.0 mm 0.00 in0.0 mm 0.00 in0.0 mm
08:48 AM 47.0°F8.3°C 34.2°F1.2°C 61% 4.1 mph NW6.6 kmh NW 11.0 mph17.7 kmh 30.28 in1025.4 mb 0.00 in0.0 mm 0.00 in0.0 mm 0.00 in0.0 mm
08:53 AM 47.3°F8.5°C 34.6°F1.4°C 61% 3.3 mph NW5.3 kmh NW 11.0 mph17.7 kmh 30.28 in1025.4 mb 0.00 in0.0 mm 0.00 in0.0 mm 0.00 in0.0 mm
08:58 AM 47.7°F8.7°C 35.0°F1.7°C 61% 2.9 mph NW4.7 kmh NW 11.0 mph17.7 kmh 30.28 in1025.4 mb 0.00 in0.0 mm 0.00 in0.0 mm 0.00 in0.0 mm
09:03 AM 47.9°F8.8°C 34.8°F1.6°C 60% 5.3 mph NW8.5 kmh NW 14.0 mph22.5 kmh 30.28 in1025.4 mb 0.00 in0.0 mm 0.00 in0.0 mm 0.00 in0.0 mm
09:08 AM 48.2°F9.0°C 34.6°F1.4°C 59% 4.0 mph NW6.4 kmh NW 14.0 mph22.5 kmh 30.28 in1025.4 mb 0.00 in0.0 mm 0.00 in0.0 mm 0.00 in0.0 mm
09:13 AM 48.5°F9.2°C 34.5°F1.4°C 58% 3.3 mph NW5.3 kmh NW 14.0 mph22.5 kmh 30.28 in1025.4 mb 0.00 in0.0 mm 0.00 in0.0 mm 0.00 in0.0 mm
09:18 AM 48.9°F9.4°C 34.4°F1.3°C 57% 4.6 mph NW7.4 kmh NW 14.0 mph22.5 kmh 30.28 in1025.4 mb 0.00 in0.0 mm 0.00 in0.0 mm 0.00 in0.0 mm
09:23 AM 49.3°F9.6°C 35.1°F1.7°C 58% 4.7 mph NNW7.6 kmh NNW 11.0 mph17.7 kmh 30.28 in1025.4 mb 0.00 in0.0 mm 0.00 in0.0 mm 0.00 in0.0 mm
09:28 AM 49.7°F9.8°C 35.1°F1.7°C 57% 3.9 mph NW6.3 kmh NW 10.0 mph16.1 kmh 30.28 in1025.4 mb 0.00 in0.0 mm 0.00 in0.0 mm 0.00 in0.0 mm
09:33 AM 50.0°F10.0°C 35.0°F1.7°C 56% 2.2 mph NW3.5 kmh NW 10.0 mph16.1 kmh 30.28 in1025.4 mb 0.00 in0.0 mm 0.00 in0.0 mm 0.00 in0.0 mm
09:38 AM 50.4°F10.2°C 34.4°F1.3°C 54% 4.3 mph NW6.9 kmh NW 10.0 mph16.1 kmh 30.28 in1025.4 mb 0.00 in0.0 mm 0.00 in0.0 mm 0.00 in0.0 mm
09:43 AM 50.6°F10.3°C 34.6°F1.4°C 54% 5.5 mph NW8.9 kmh NW 10.0 mph16.1 kmh 30.28 in1025.4 mb 0.00 in0.0 mm 0.00 in0.0 mm 0.00 in0.0 mm
09:48 AM 50.9°F10.5°C 34.4°F1.3°C 53% 3.7 mph NW6.0 kmh NW 10.0 mph16.1 kmh 30.28 in1025.4 mb 0.00 in0.0 mm 0.00 in0.0 mm 0.00 in0.0 mm
09:53 AM 51.4°F10.8°C 34.8°F1.6°C 53% 3.7 mph NW6.0 kmh NW 10.0 mph16.1 kmh 30.28 in1025.4 mb 0.00 in0.0 mm 0.00 in0.0 mm 0.00 in0.0 mm
09:58 AM 52.0°F11.1°C 35.4°F1.9°C 53% 2.9 mph NNW4.7 kmh NNW 10.0 mph16.1 kmh 30.28 in1025.4 mb 0.00 in0.0 mm 0.00 in0.0 mm 0.00 in0.0 mm
10:03 AM 52.3°F11.3°C 34.2°F1.2°C 50% 5.4 mph NW8.7 kmh NW 11.0 mph17.7 kmh 30.28 in1025.4 mb 0.00 in0.0 mm 0.00 in0.0 mm 0.00 in0.0 mm
10:08 AM 52.5°F11.4°C 34.9°F1.6°C 51% 2.0 mph NW3.2 kmh NW 11.0 mph17.7 kmh 30.28 in1025.4 mb 0.00 in0.0 mm 0.00 in0.0 mm 0.00 in0.0 mm
10:13 AM 52.9°F11.6°C 34.7°F1.5°C 50% 3.2 mph NNW5.1 kmh NNW 11.0 mph17.7 kmh 30.28 in1025.4 mb 0.00 in0.0 mm 0.00 in0.0 mm 0.00 in0.0 mm
10:18 AM 53.4°F11.9°C 34.7°F1.5°C 49% 2.3 mph N3.7 kmh N 11.0 mph17.7 kmh 30.28 in1025.4 mb 0.00 in0.0 mm 0.00 in0.0 mm 0.00 in0.0 mm
10:23 AM 53.7°F12.1°C 34.4°F1.3°C 48% 6.4 mph NW10.3 kmh NW 12.0 mph19.3 kmh 30.28 in1025.4 mb 0.00 in0.0 mm 0.00 in0.0 mm 0.00 in0.0 mm
10:28 AM 54.0°F12.2°C 34.7°F1.5°C 48% 4.3 mph NW6.9 kmh NW 12.0 mph19.3 kmh 30.27 in1025.1 mb 0.00 in0.0 mm 0.00 in0.0 mm 0.00 in0.0 mm
10:33 AM 54.3°F12.4°C 35.0°F1.7°C 48% 1.8 mph NNW2.9 kmh NNW 12.0 mph19.3 kmh 30.27 in1025.1 mb 0.00 in0.0 mm 0.00 in0.0 mm 0.00 in0.0 mm
10:38 AM 55.0°F12.8°C 35.1°F1.7°C 47% 3.2 mph NW5.1 kmh NW 12.0 mph19.3 kmh 30.27 in1025.1 mb 0.00 in0.0 mm 0.00 in0.0 mm 0.00 in0.0 mm
10:43 AM 55.3°F12.9°C 35.3°F1.8°C 47% 2.3 mph NW3.7 kmh NW 12.0 mph19.3 kmh 30.28 in1025.4 mb 0.00 in0.0 mm 0.00 in0.0 mm 0.00 in0.0 mm
10:48 AM 56.0°F13.3°C 35.4°F1.9°C 46% 4.1 mph NW6.6 kmh NW 9.0 mph14.5 kmh 30.28 in1025.4 mb 0.00 in0.0 mm 0.00 in0.0 mm 0.00 in0.0 mm
10:53 AM 56.3°F13.5°C 34.0°F1.1°C 43% 4.4 mph NW7.1 kmh NW 10.0 mph16.1 kmh 30.28 in1025.4 mb 0.00 in0.0 mm 0.00 in0.0 mm 0.00 in0.0 mm
10:58 AM 56.2°F13.4°C 34.6°F1.4°C 44% 3.5 mph NW5.6 kmh NW 12.0 mph19.3 kmh 30.28 in1025.4 mb 0.00 in0.0 mm 0.00 in0.0 mm 0.00 in0.0 mm
11:03 AM 56.5°F13.6°C 34.3°F1.3°C 43% 3.8 mph NW6.1 kmh NW 12.0 mph19.3 kmh 30.28 in1025.4 mb 0.00 in0.0 mm 0.00 in0.0 mm 0.00 in0.0 mm
11:08 AM 56.9°F13.8°C 34.6°F1.4°C 43% 2.1 mph NW3.4 kmh NW 12.0 mph19.3 kmh 30.27 in1025.1 mb 0.00 in0.0 mm 0.00 in0.0 mm 0.00 in0.0 mm
11:12 AM 57.6°F14.2°C 35.7°F2.1°C 44% 1.5 mph W2.4 kmh W 12.0 mph19.3 kmh 30.27 in1025.1 mb 0.00 in0.0 mm 0.00 in0.0 mm 0.00 in0.0 mm
11:17 AM 57.8°F14.3°C 35.3°F1.8°C 43% 2.7 mph WNW4.3 kmh WNW 9.0 mph14.5 kmh 30.27 in1025.1 mb 0.00 in0.0 mm 0.00 in0.0 mm 0.00 in0.0 mm
11:22 AM 57.9°F14.4°C 34.8°F1.6°C 42% 4.2 mph WNW6.8 kmh WNW 7.0 mph11.3 kmh 30.27 in1025.1 mb 0.00 in0.0 mm 0.00 in0.0 mm 0.00 in0.0 mm
11:27 AM 58.2°F14.6°C 35.1°F1.7°C 42% 2.3 mph NW3.7 kmh NW 7.0 mph11.3 kmh 30.27 in1025.1 mb 0.00 in0.0 mm 0.00 in0.0 mm 0.00 in0.0 mm
11:32 AM 58.5°F14.7°C 34.7°F1.5°C 41% 4.1 mph WNW6.6 kmh WNW 8.0 mph12.9 kmh 30.27 in1025.1 mb 0.00 in0.0 mm 0.00 in0.0 mm 0.00 in0.0 mm
11:37 AM 58.8°F14.9°C 35.0°F1.7°C 41% 1.9 mph W3.1 kmh W 8.0 mph12.9 kmh 30.26 in1024.7 mb 0.00 in0.0 mm 0.00 in0.0 mm 0.00 in0.0 mm
11:42 AM 59.1°F15.1°C 35.3°F1.8°C 41% 1.8 mph W2.9 kmh W 8.0 mph12.9 kmh 30.26 in1024.7 mb 0.00 in0.0 mm 0.00 in0.0 mm 0.00 in0.0 mm
11:47 AM 59.6°F15.3°C 35.2°F1.8°C 40% 3.2 mph NW5.1 kmh NW 8.0 mph12.9 kmh 30.26 in1024.7 mb 0.00 in0.0 mm 0.00 in0.0 mm 0.00 in0.0 mm
11:52 AM 59.9°F15.5°C 34.9°F1.6°C 39% 2.7 mph NW4.3 kmh NW 8.0 mph12.9 kmh 30.26 in1024.7 mb 0.00 in0.0 mm 0.00 in0.0 mm 0.00 in0.0 mm
11:57 AM 59.9°F15.5°C 35.5°F1.9°C 40% 3.3 mph NW5.3 kmh NW 8.0 mph12.9 kmh 30.26 in1024.7 mb 0.00 in0.0 mm 0.00 in0.0 mm 0.00 in0.0 mm
12:02 PM 60.4°F15.8°C 36.4°F2.4°C 41% 2.7 mph NW4.3 kmh NW 6.0 mph9.7 kmh 30.25 in1024.4 mb 0.00 in0.0 mm 0.00 in0.0 mm 0.00 in0.0 mm
12:07 PM 60.6°F15.9°C 34.7°F1.5°C 38% 3.9 mph NW6.3 kmh NW 8.0 mph12.9 kmh 30.25 in1024.4 mb 0.00 in0.0 mm 0.00 in0.0 mm 0.00 in0.0 mm
12:12 PM 60.7°F15.9°C 34.8°F1.6°C 38% 3.2 mph NW5.1 kmh NW 8.0 mph12.9 kmh 30.25 in1024.4 mb 0.00 in0.0 mm 0.00 in0.0 mm 0.00 in0.0 mm
12:17 PM 61.1°F16.2°C 35.1°F1.7°C 38% 3.1 mph W5.0 kmh W 8.0 mph12.9 kmh 30.25 in1024.4 mb 0.00 in0.0 mm 0.00 in0.0 mm 0.00 in0.0 mm
12:22 PM 61.3°F16.3°C 34.6°F1.4°C 37% 4.2 mph WNW6.8 kmh WNW 8.0 mph12.9 kmh 30.24 in1024.0 mb 0.00 in0.0 mm 0.00 in0.0 mm 0.00 in0.0 mm
12:27 PM 61.5°F16.4°C 34.8°F1.6°C 37% 3.3 mph W5.3 kmh W 8.0 mph12.9 kmh 30.24 in1024.0 mb 0.00 in0.0 mm 0.00 in0.0 mm 0.00 in0.0 mm
12:32 PM 61.6°F16.4°C 34.2°F1.2°C 36% 3.4 mph W5.5 kmh W 9.0 mph14.5 kmh 30.24 in1024.0 mb 0.00 in0.0 mm 0.00 in0.0 mm 0.00 in0.0 mm
12:37 PM 62.0°F16.7°C 36.6°F2.6°C 39% 2.3 mph W3.7 kmh W 9.0 mph14.5 kmh 30.24 in1024.0 mb 0.00 in0.0 mm 0.00 in0.0 mm 0.00 in0.0 mm
12:42 PM 62.8°F17.1°C 35.9°F2.2°C 37% 2.9 mph NW4.7 kmh NW 9.0 mph14.5 kmh 30.24 in1024.0 mb 0.00 in0.0 mm 0.00 in0.0 mm 0.00 in0.0 mm
12:47 PM 63.3°F17.4°C 36.4°F2.4°C 37% 1.2 mph NW1.9 kmh NW 8.0 mph12.9 kmh 30.23 in1023.7 mb 0.00 in0.0 mm 0.00 in0.0 mm 0.00 in0.0 mm
12:52 PM 63.3°F17.4°C 35.2°F1.8°C 35% 3.8 mph NW6.1 kmh NW 6.0 mph9.7 kmh 30.23 in1023.7 mb 0.00 in0.0 mm 0.00 in0.0 mm 0.00 in0.0 mm
12:57 PM 63.4°F17.4°C 35.1°F1.7°C 35% 2.7 mph WNW4.3 kmh WNW 6.0 mph9.7 kmh 30.23 in1023.7 mb 0.00 in0.0 mm 0.00 in0.0 mm 0.00 in0.0 mm
01:02 PM 63.6°F17.6°C 36.0°F2.2°C 36% 2.9 mph W4.7 kmh W 6.0 mph9.7 kmh 30.22 in1023.4 mb 0.00 in0.0 mm 0.00 in0.0 mm 0.00 in0.0 mm
01:07 PM 64.0°F17.8°C 34.9°F1.6°C 34% 2.0 mph NW3.2 kmh NW 7.0 mph11.3 kmh 30.22 in1023.4 mb 0.00 in0.0 mm 0.00 in0.0 mm 0.00 in0.0 mm
01:12 PM 64.0°F17.8°C 35.6°F2.0°C 35% 3.3 mph WNW5.3 kmh WNW 7.0 mph11.3 kmh 30.22 in1023.4 mb 0.00 in0.0 mm 0.00 in0.0 mm 0.00 in0.0 mm
01:17 PM 64.3°F17.9°C 35.1°F1.7°C 34% 2.4 mph WNW3.9 kmh WNW 7.0 mph11.3 kmh 30.22 in1023.4 mb 0.00 in0.0 mm 0.00 in0.0 mm 0.00 in0.0 mm
01:22 PM 64.5°F18.1°C 36.0°F2.2°C 35% 2.7 mph N4.3 kmh N 7.0 mph11.3 kmh 30.22 in1023.4 mb 0.00 in0.0 mm 0.00 in0.0 mm 0.00 in0.0 mm
01:27 PM 64.9°F18.3°C 35.1°F1.7°C 33% 3.0 mph WNW4.8 kmh WNW 6.0 mph9.7 kmh 30.22 in1023.4 mb 0.00 in0.0 mm 0.00 in0.0 mm 0.00 in0.0 mm
01:32 PM 65.2°F18.4°C 35.2°F1.8°C 33% 2.1 mph W3.4 kmh W 6.0 mph9.7 kmh 30.22 in1023.4 mb 0.00 in0.0 mm 0.00 in0.0 mm 0.00 in0.0 mm
01:37 PM 65.4°F18.6°C 35.3°F1.8°C 33% 3.1 mph WNW5.0 kmh WNW 7.0 mph11.3 kmh 30.22 in1023.4 mb 0.00 in0.0 mm 0.00 in0.0 mm 0.00 in0.0 mm
01:42 PM 65.7°F18.7°C 35.6°F2.0°C 33% 2.9 mph W4.7 kmh W 7.0 mph11.3 kmh 30.22 in1023.4 mb 0.00 in0.0 mm 0.00 in0.0 mm 0.00 in0.0 mm
01:47 PM 65.6°F18.7°C 35.5°F1.9°C 33% 2.6 mph W4.2 kmh W 7.0 mph11.3 kmh 30.21 in1023.0 mb 0.00 in0.0 mm 0.00 in0.0 mm 0.00 in0.0 mm
01:52 PM 66.0°F18.9°C 35.9°F2.2°C 33% 2.8 mph WNW4.5 kmh WNW 7.0 mph11.3 kmh 30.21 in1023.0 mb 0.00 in0.0 mm 0.00 in0.0 mm 0.00 in0.0 mm
01:57 PM 66.1°F18.9°C 36.7°F2.6°C 34% 1.5 mph W2.4 kmh W 7.0 mph11.3 kmh 30.21 in1023.0 mb 0.00 in0.0 mm 0.00 in0.0 mm 0.00 in0.0 mm
02:02 PM 66.5°F19.2°C 34.7°F1.5°C 31% 3.5 mph NW5.6 kmh NW 8.0 mph12.9 kmh 30.22 in1023.4 mb 0.00 in0.0 mm 0.00 in0.0 mm 0.00 in0.0 mm
02:07 PM 66.5°F19.2°C 36.3°F2.4°C 33% 3.9 mph WNW6.3 kmh WNW 8.0 mph12.9 kmh 30.21 in1023.0 mb 0.00 in0.0 mm 0.00 in0.0 mm 0.00 in0.0 mm
02:12 PM 66.7°F19.3°C 35.7°F2.1°C 32% 2.3 mph WNW3.7 kmh WNW 8.0 mph12.9 kmh 30.21 in1023.0 mb 0.00 in0.0 mm 0.00 in0.0 mm 0.00 in0.0 mm
02:17 PM 67.0°F19.4°C 35.2°F1.8°C 31% 3.4 mph NW5.5 kmh NW 8.0 mph12.9 kmh 30.21 in1023.0 mb 0.00 in0.0 mm 0.00 in0.0 mm 0.00 in0.0 mm
02:22 PM 67.3°F19.6°C 35.6°F2.0°C 31% 2.7 mph NW4.3 kmh NW 7.0 mph11.3 kmh 30.21 in1023.0 mb 0.00 in0.0 mm 0.00 in0.0 mm 0.00 in0.0 mm
02:27 PM 67.3°F19.6°C 34.6°F1.4°C 30% 2.0 mph WNW3.2 kmh WNW 7.0 mph11.3 kmh 30.21 in1023.0 mb 0.00 in0.0 mm 0.00 in0.0 mm 0.00 in0.0 mm
02:32 PM 67.5°F19.7°C 34.8°F1.6°C 30% 3.5 mph WNW5.6 kmh WNW 7.0 mph11.3 kmh 30.21 in1023.0 mb 0.00 in0.0 mm 0.00 in0.0 mm 0.00 in0.0 mm
02:37 PM 67.5°F19.7°C 34.8°F1.6°C 30% 3.1 mph NW5.0 kmh NW 7.0 mph11.3 kmh 30.21 in1023.0 mb 0.00 in0.0 mm 0.00 in0.0 mm 0.00 in0.0 mm
02:42 PM 67.6°F19.8°C 35.7°F2.1°C 31% 1.9 mph NW3.1 kmh NW 7.0 mph11.3 kmh 30.22 in1023.4 mb 0.00 in0.0 mm 0.00 in0.0 mm 0.00 in0.0 mm
02:47 PM 67.6°F19.8°C 35.0°F1.7°C 30% 4.0 mph NW6.4 kmh NW 8.0 mph12.9 kmh 30.22 in1023.4 mb 0.00 in0.0 mm 0.00 in0.0 mm 0.00 in0.0 mm
02:52 PM 67.7°F19.8°C 36.0°F2.2°C 31% 3.7 mph NW6.0 kmh NW 9.0 mph14.5 kmh 30.22 in1023.4 mb 0.00 in0.0 mm 0.00 in0.0 mm 0.00 in0.0 mm
02:57 PM 67.9°F19.9°C 36.1°F2.3°C 31% 2.7 mph NW4.3 kmh NW 9.0 mph14.5 kmh 30.22 in1023.4 mb 0.00 in0.0 mm 0.00 in0.0 mm 0.00 in0.0 mm
03:02 PM 68.0°F20.0°C 35.4°F1.9°C 30% 2.9 mph NW4.7 kmh NW 9.0 mph14.5 kmh 30.22 in1023.4 mb 0.00 in0.0 mm 0.00 in0.0 mm 0.00 in0.0 mm
03:07 PM 68.0°F20.0°C 36.0°F2.2°C 31% 3.1 mph NW5.0 kmh NW 9.0 mph14.5 kmh 30.21 in1023.0 mb 0.00 in0.0 mm 0.00 in0.0 mm 0.00 in0.0 mm
03:12 PM 67.9°F19.9°C 35.9°F2.2°C 31% 2.9 mph NNW4.7 kmh NNW 8.0 mph12.9 kmh 30.21 in1023.0 mb 0.00 in0.0 mm 0.00 in0.0 mm 0.00 in0.0 mm
03:17 PM 67.9°F19.9°C 35.1°F1.7°C 30% 3.8 mph NW6.1 kmh NW 8.0 mph12.9 kmh 30.21 in1023.0 mb 0.00 in0.0 mm 0.00 in0.0 mm 0.00 in0.0 mm
03:22 PM 68.1°F20.1°C 35.3°F1.8°C 30% 1.6 mph WNW2.6 kmh WNW 8.0 mph12.9 kmh 30.21 in1023.0 mb 0.00 in0.0 mm 0.00 in0.0 mm 0.00 in0.0 mm
03:27 PM 68.1°F20.1°C 34.5°F1.4°C 29% 2.4 mph NW3.9 kmh NW 8.0 mph12.9 kmh 30.21 in1023.0 mb 0.00 in0.0 mm 0.00 in0.0 mm 0.00 in0.0 mm
03:32 PM 68.0°F20.0°C 35.2°F1.8°C 30% 2.7 mph NW4.3 kmh NW 8.0 mph12.9 kmh 30.21 in1023.0 mb 0.00 in0.0 mm 0.00 in0.0 mm 0.00 in0.0 mm
03:37 PM 68.1°F20.1°C 34.5°F1.4°C 29% 5.0 mph NW8.0 kmh NW 9.0 mph14.5 kmh 30.21 in1023.0 mb 0.00 in0.0 mm 0.00 in0.0 mm 0.00 in0.0 mm
03:42 PM 67.8°F19.9°C 34.2°F1.2°C 29% 3.0 mph NW4.8 kmh NW 9.0 mph14.5 kmh 30.21 in1023.0 mb 0.00 in0.0 mm 0.00 in0.0 mm 0.00 in0.0 mm
03:47 PM 67.8°F19.9°C 34.2°F1.2°C 29% 2.3 mph NW3.7 kmh NW 9.0 mph14.5 kmh 30.21 in1023.0 mb 0.00 in0.0 mm 0.00 in0.0 mm 0.00 in0.0 mm
03:52 PM 67.9°F19.9°C 35.1°F1.7°C 30% 2.3 mph WNW3.7 kmh WNW 9.0 mph14.5 kmh 30.20 in1022.7 mb 0.00 in0.0 mm 0.00 in0.0 mm 0.00 in0.0 mm
03:57 PM 68.1°F20.1°C 33.6°F0.9°C 28% 2.3 mph W3.7 kmh W 7.0 mph11.3 kmh 30.20 in1022.7 mb 0.00 in0.0 mm 0.00 in0.0 mm 0.00 in0.0 mm
04:02 PM 68.0°F20.0°C 33.5°F0.8°C 28% 2.8 mph NW4.5 kmh NW 6.0 mph9.7 kmh 30.20 in1022.7 mb 0.00 in0.0 mm 0.00 in0.0 mm 0.00 in0.0 mm
04:07 PM 68.0°F20.0°C 34.4°F1.3°C 29% 2.4 mph NNW3.9 kmh NNW 6.0 mph9.7 kmh 30.21 in1023.0 mb 0.00 in0.0 mm 0.00 in0.0 mm 0.00 in0.0 mm
04:12 PM 67.9°F19.9°C 35.1°F1.7°C 30% 2.0 mph NNW3.2 kmh NNW 6.0 mph9.7 kmh 30.21 in1023.0 mb 0.00 in0.0 mm 0.00 in0.0 mm 0.00 in0.0 mm
04:17 PM 67.9°F19.9°C 35.1°F1.7°C 30% 1.9 mph NW3.1 kmh NW 5.0 mph8.0 kmh 30.21 in1023.0 mb 0.00 in0.0 mm 0.00 in0.0 mm 0.00 in0.0 mm
04:22 PM 67.9°F19.9°C 35.1°F1.7°C 30% 2.5 mph NW4.0 kmh NW 5.0 mph8.0 kmh 30.21 in1023.0 mb 0.00 in0.0 mm 0.00 in0.0 mm 0.00 in0.0 mm
04:27 PM 67.9°F19.9°C 36.8°F2.7°C 32% 1.3 mph NW2.1 kmh NW 5.0 mph8.0 kmh 30.21 in1023.0 mb 0.00 in0.0 mm 0.00 in0.0 mm 0.00 in0.0 mm
04:32 PM 67.9°F19.9°C 35.9°F2.2°C 31% 2.2 mph WNW3.5 kmh WNW 5.0 mph8.0 kmh 30.21 in1023.0 mb 0.00 in0.0 mm 0.00 in0.0 mm 0.00 in0.0 mm
04:37 PM 67.7°F19.8°C 35.8°F2.1°C 31% 2.7 mph WNW4.3 kmh WNW 7.0 mph11.3 kmh 30.21 in1023.0 mb 0.00 in0.0 mm 0.00 in0.0 mm 0.00 in0.0 mm
04:42 PM 67.5°F19.7°C 35.6°F2.0°C 31% 1.9 mph NW3.1 kmh NW 7.0 mph11.3 kmh 30.21 in1023.0 mb 0.00 in0.0 mm 0.00 in0.0 mm 0.00 in0.0 mm
04:47 PM 67.3°F19.6°C 34.8°F1.6°C 30% 3.5 mph WNW5.6 kmh WNW 7.0 mph11.3 kmh 30.21 in1023.0 mb 0.00 in0.0 mm 0.00 in0.0 mm 0.00 in0.0 mm
04:52 PM 67.1°F19.5°C 35.2°F1.8°C 31% 3.3 mph WNW5.3 kmh WNW 7.0 mph11.3 kmh 30.21 in1023.0 mb 0.00 in0.0 mm 0.00 in0.0 mm 0.00 in0.0 mm
04:57 PM 67.0°F19.4°C 35.2°F1.8°C 31% 2.3 mph WNW3.7 kmh WNW 7.0 mph11.3 kmh 30.21 in1023.0 mb 0.00 in0.0 mm 0.00 in0.0 mm 0.00 in0.0 mm
05:02 PM 66.8°F19.3°C 35.8°F2.1°C 32% 1.5 mph WNW2.4 kmh WNW 7.0 mph11.3 kmh 30.22 in1023.4 mb 0.00 in0.0 mm 0.00 in0.0 mm 0.00 in0.0 mm
05:07 PM 66.5°F19.2°C 36.3°F2.4°C 33% 1.8 mph WNW2.9 kmh WNW 7.0 mph11.3 kmh 30.22 in1023.4 mb 0.00 in0.0 mm 0.00 in0.0 mm 0.00 in0.0 mm
05:12 PM 66.1°F18.9°C 36.0°F2.2°C 33% 2.2 mph NW3.5 kmh NW 7.0 mph11.3 kmh 30.21 in1023.0 mb 0.00 in0.0 mm 0.00 in0.0 mm 0.00 in0.0 mm
05:17 PM 65.8°F18.8°C 36.4°F2.4°C 34% 1.6 mph NW2.6 kmh NW 7.0 mph11.3 kmh 30.21 in1023.0 mb 0.00 in0.0 mm 0.00 in0.0 mm 0.00 in0.0 mm
05:22 PM 65.4°F18.6°C 36.8°F2.7°C 35% Calm Calm 4.0 mph6.4 kmh 30.22 in1023.4 mb 0.00 in0.0 mm 0.00 in0.0 mm 0.00 in0.0 mm
05:27 PM 64.9°F18.3°C 36.4°F2.4°C 35% Calm Calm 4.0 mph6.4 kmh 30.22 in1023.4 mb 0.00 in0.0 mm 0.00 in0.0 mm 0.00 in0.0 mm
05:32 PM 64.4°F18.0°C 36.7°F2.6°C 36% Calm Calm 4.0 mph6.4 kmh 30.21 in1023.0 mb 0.00 in0.0 mm 0.00 in0.0 mm 0.00 in0.0 mm
05:37 PM 64.1°F17.8°C 36.4°F2.4°C 36% 1.0 mph NW1.6 kmh NW 2.0 mph3.2 kmh 30.21 in1023.0 mb 0.00 in0.0 mm 0.00 in0.0 mm 0.00 in0.0 mm
05:42 PM 63.7°F17.6°C 36.0°F2.2°C 36% 1.2 mph NW1.9 kmh NW 2.0 mph3.2 kmh 30.21 in1023.0 mb 0.00 in0.0 mm 0.00 in0.0 mm 0.00 in0.0 mm
05:47 PM 63.3°F17.4°C 36.4°F2.4°C 37% Calm Calm 2.0 mph3.2 kmh 30.20 in1022.7 mb 0.00 in0.0 mm 0.00 in0.0 mm 0.00 in0.0 mm
05:52 PM 63.0°F17.2°C 36.1°F2.3°C 37% 1.0 mph NW1.6 kmh NW 2.0 mph3.2 kmh 30.21 in1023.0 mb 0.00 in0.0 mm 0.00 in0.0 mm 0.00 in0.0 mm
05:57 PM 62.5°F16.9°C 36.4°F2.4°C 38% 1.2 mph NW1.9 kmh NW 2.0 mph3.2 kmh 30.21 in1023.0 mb 0.00 in0.0 mm 0.00 in0.0 mm 0.00 in0.0 mm
06:02 PM 62.4°F16.9°C 35.6°F2.0°C 37% 1.9 mph NW3.1 kmh NW 5.0 mph8.0 kmh 30.22 in1023.4 mb 0.00 in0.0 mm 0.00 in0.0 mm 0.00 in0.0 mm
06:07 PM 62.4°F16.9°C 36.3°F2.4°C 38% 2.0 mph NW3.2 kmh NW 5.0 mph8.0 kmh 30.21 in1023.0 mb 0.00 in0.0 mm 0.00 in0.0 mm 0.00 in0.0 mm
06:12 PM 62.4°F16.9°C 36.4°F2.4°C 38% 1.9 mph WNW3.1 kmh WNW 5.0 mph8.0 kmh 30.21 in1023.0 mb 0.00 in0.0 mm 0.00 in0.0 mm 0.00 in0.0 mm
06:17 PM 62.2°F16.8°C 36.1°F2.3°C 38% 1.6 mph NW2.6 kmh NW 5.0 mph8.0 kmh 30.21 in1023.0 mb 0.00 in0.0 mm 0.00 in0.0 mm 0.00 in0.0 mm
06:22 PM 61.9°F16.6°C 35.8°F2.1°C 38% 1.7 mph WNW2.7 kmh WNW 5.0 mph8.0 kmh 30.22 in1023.4 mb 0.00 in0.0 mm 0.00 in0.0 mm 0.00 in0.0 mm
06:27 PM 61.7°F16.5°C 36.3°F2.4°C 39% 2.6 mph WNW4.2 kmh WNW 6.0 mph9.7 kmh 30.23 in1023.7 mb 0.00 in0.0 mm 0.00 in0.0 mm 0.00 in0.0 mm
06:32 PM 61.5°F16.4°C 36.1°F2.3°C 39% 3.0 mph NW4.8 kmh NW 6.0 mph9.7 kmh 30.23 in1023.7 mb 0.00 in0.0 mm 0.00 in0.0 mm 0.00 in0.0 mm
06:37 PM 61.3°F16.3°C 36.6°F2.6°C 40% 1.8 mph NW2.9 kmh NW 6.0 mph9.7 kmh 30.23 in1023.7 mb 0.00 in0.0 mm 0.00 in0.0 mm 0.00 in0.0 mm
06:42 PM 60.9°F16.1°C 36.9°F2.7°C 41% 1.6 mph WNW2.6 kmh WNW 6.0 mph9.7 kmh 30.23 in1023.7 mb 0.00 in0.0 mm 0.00 in0.0 mm 0.00 in0.0 mm
06:47 PM 60.5°F15.8°C 36.5°F2.5°C 41% 1.7 mph NW2.7 kmh NW 6.0 mph9.7 kmh 30.23 in1023.7 mb 0.00 in0.0 mm 0.00 in0.0 mm 0.00 in0.0 mm
06:52 PM 60.3°F15.7°C 36.4°F2.4°C 41% 2.9 mph NW4.7 kmh NW 8.0 mph12.9 kmh 30.23 in1023.7 mb 0.00 in0.0 mm 0.00 in0.0 mm 0.00 in0.0 mm
06:57 PM 60.1°F15.6°C 36.2°F2.3°C 41% 1.6 mph NW2.6 kmh NW 8.0 mph12.9 kmh 30.23 in1023.7 mb 0.00 in0.0 mm 0.00 in0.0 mm 0.00 in0.0 mm
07:02 PM 59.9°F15.5°C 36.0°F2.2°C 41% 2.8 mph NW4.5 kmh NW 8.0 mph12.9 kmh 30.23 in1023.7 mb 0.00 in0.0 mm 0.00 in0.0 mm 0.00 in0.0 mm
07:07 PM 59.7°F15.4°C 35.8°F2.1°C 41% 2.5 mph NW4.0 kmh NW 8.0 mph12.9 kmh 30.23 in1023.7 mb 0.00 in0.0 mm 0.00 in0.0 mm 0.00 in0.0 mm
07:11 PM 59.5°F15.3°C 36.4°F2.4°C 42% 2.5 mph NW4.0 kmh NW 7.0 mph11.3 kmh 30.23 in1023.7 mb 0.00 in0.0 mm 0.00 in0.0 mm 0.00 in0.0 mm
07:16 PM 59.3°F15.2°C 36.1°F2.3°C 42% 2.2 mph NW3.5 kmh NW 7.0 mph11.3 kmh 30.23 in1023.7 mb 0.00 in0.0 mm 0.00 in0.0 mm 0.00 in0.0 mm
07:21 PM 59.2°F15.1°C 36.0°F2.2°C 42% 2.5 mph NW4.0 kmh NW 7.0 mph11.3 kmh 30.24 in1024.0 mb 0.00 in0.0 mm 0.00 in0.0 mm 0.00 in0.0 mm
07:26 PM 59.1°F15.1°C 35.9°F2.2°C 42% 2.7 mph NW4.3 kmh NW 7.0 mph11.3 kmh 30.24 in1024.0 mb 0.00 in0.0 mm 0.00 in0.0 mm 0.00 in0.0 mm
07:31 PM 59.0°F15.0°C 35.8°F2.1°C 42% 2.3 mph NW3.7 kmh NW 7.0 mph11.3 kmh 30.24 in1024.0 mb 0.00 in0.0 mm 0.00 in0.0 mm 0.00 in0.0 mm
07:36 PM 58.9°F14.9°C 35.7°F2.1°C 42% 3.8 mph NW6.1 kmh NW 7.0 mph11.3 kmh 30.24 in1024.0 mb 0.00 in0.0 mm 0.00 in0.0 mm 0.00 in0.0 mm
07:41 PM 58.8°F14.9°C 35.6°F2.0°C 42% 3.0 mph NW4.8 kmh NW 8.0 mph12.9 kmh 30.24 in1024.0 mb 0.00 in0.0 mm 0.00 in0.0 mm 0.00 in0.0 mm
07:46 PM 58.7°F14.8°C 35.5°F1.9°C 42% 3.8 mph NW6.1 kmh NW 9.0 mph14.5 kmh 30.24 in1024.0 mb 0.00 in0.0 mm 0.00 in0.0 mm 0.00 in0.0 mm
07:51 PM 58.6°F14.8°C 35.4°F1.9°C 42% 3.0 mph NW4.8 kmh NW 9.0 mph14.5 kmh 30.24 in1024.0 mb 0.00 in0.0 mm 0.00 in0.0 mm 0.00 in0.0 mm
07:56 PM 58.4°F14.7°C 35.3°F1.8°C 42% 3.9 mph NW6.3 kmh NW 9.0 mph14.5 kmh 30.24 in1024.0 mb 0.00 in0.0 mm 0.00 in0.0 mm 0.00 in0.0 mm
08:01 PM 58.4°F14.7°C 35.3°F1.8°C 42% 3.8 mph NW6.1 kmh NW 8.0 mph12.9 kmh 30.24 in1024.0 mb 0.00 in0.0 mm 0.00 in0.0 mm 0.00 in0.0 mm
08:06 PM 58.2°F14.6°C 35.7°F2.1°C 43% 1.0 mph WNW1.6 kmh WNW 8.0 mph12.9 kmh 30.23 in1023.7 mb 0.00 in0.0 mm 0.00 in0.0 mm 0.00 in0.0 mm
08:11 PM 58.0°F14.4°C 34.9°F1.6°C 42% 3.1 mph NW5.0 kmh NW 8.0 mph12.9 kmh 30.23 in1023.7 mb 0.00 in0.0 mm 0.00 in0.0 mm 0.00 in0.0 mm
08:16 PM 57.9°F14.4°C 35.5°F1.9°C 43% 2.6 mph NW4.2 kmh NW 8.0 mph12.9 kmh 30.24 in1024.0 mb 0.00 in0.0 mm 0.00 in0.0 mm 0.00 in0.0 mm
08:21 PM 57.7°F14.3°C 35.3°F1.8°C 43% 1.5 mph NW2.4 kmh NW 8.0 mph12.9 kmh 30.23 in1023.7 mb 0.00 in0.0 mm 0.00 in0.0 mm 0.00 in0.0 mm
08:26 PM 57.6°F14.2°C 35.2°F1.8°C 43% 2.9 mph NNW4.7 kmh NNW 8.0 mph12.9 kmh 30.23 in1023.7 mb 0.00 in0.0 mm 0.00 in0.0 mm 0.00 in0.0 mm
08:31 PM 57.4°F14.1°C 35.1°F1.7°C 43% 2.8 mph NW4.5 kmh NW 8.0 mph12.9 kmh 30.24 in1024.0 mb 0.00 in0.0 mm 0.00 in0.0 mm 0.00 in0.0 mm
08:36 PM 57.2°F14.0°C 34.8°F1.6°C 43% 3.9 mph NW6.3 kmh NW 8.0 mph12.9 kmh 30.24 in1024.0 mb 0.00 in0.0 mm 0.00 in0.0 mm 0.00 in0.0 mm
08:41 PM 57.0°F13.9°C 35.2°F1.8°C 44% 3.5 mph NW5.6 kmh NW 8.0 mph12.9 kmh 30.24 in1024.0 mb 0.00 in0.0 mm 0.00 in0.0 mm 0.00 in0.0 mm
08:46 PM 56.9°F13.8°C 35.1°F1.7°C 44% 2.7 mph NW4.3 kmh NW 8.0 mph12.9 kmh 30.25 in1024.4 mb 0.00 in0.0 mm 0.00 in0.0 mm 0.00 in0.0 mm
08:51 PM 56.7°F13.7°C 34.9°F1.6°C 44% 1.7 mph NW2.7 kmh NW 8.0 mph12.9 kmh 30.25 in1024.4 mb 0.00 in0.0 mm 0.00 in0.0 mm 0.00 in0.0 mm
08:56 PM 56.5°F13.6°C 34.7°F1.5°C 44% 1.9 mph NW3.1 kmh NW 9.0 mph14.5 kmh 30.25 in1024.4 mb 0.00 in0.0 mm 0.00 in0.0 mm 0.00 in0.0 mm
09:01 PM 56.4°F13.6°C 35.2°F1.8°C 45% 2.4 mph NW3.9 kmh NW 10.0 mph16.1 kmh 30.25 in1024.4 mb 0.00 in0.0 mm 0.00 in0.0 mm 0.00 in0.0 mm
09:06 PM 56.2°F13.4°C 35.0°F1.7°C 45% 2.9 mph NW4.7 kmh NW 10.0 mph16.1 kmh 30.25 in1024.4 mb 0.00 in0.0 mm 0.00 in0.0 mm 0.00 in0.0 mm
09:11 PM 56.0°F13.3°C 34.9°F1.6°C 45% 2.1 mph NW3.4 kmh NW 10.0 mph16.1 kmh 30.25 in1024.4 mb 0.00 in0.0 mm 0.00 in0.0 mm 0.00 in0.0 mm
09:16 PM 55.9°F13.3°C 35.3°F1.8°C 46% 2.5 mph NW4.0 kmh NW 7.0 mph11.3 kmh 30.25 in1024.4 mb 0.00 in0.0 mm 0.00 in0.0 mm 0.00 in0.0 mm
09:21 PM 55.7°F13.2°C 35.2°F1.8°C 46% 3.0 mph NW4.8 kmh NW 7.0 mph11.3 kmh 30.25 in1024.4 mb 0.00 in0.0 mm 0.00 in0.0 mm 0.00 in0.0 mm
09:26 PM 55.7°F13.2°C 35.2°F1.8°C 46% 2.4 mph NW3.9 kmh NW 9.0 mph14.5 kmh 30.25 in1024.4 mb 0.00 in0.0 mm 0.00 in0.0 mm 0.00 in0.0 mm
09:31 PM 55.5°F13.1°C 35.0°F1.7°C 46% 3.2 mph NW5.1 kmh NW 9.0 mph14.5 kmh 30.25 in1024.4 mb 0.00 in0.0 mm 0.00 in0.0 mm 0.00 in0.0 mm
09:36 PM 55.3°F12.9°C 35.4°F1.9°C 47% 2.8 mph NNW4.5 kmh NNW 9.0 mph14.5 kmh 30.25 in1024.4 mb 0.00 in0.0 mm 0.00 in0.0 mm 0.00 in0.0 mm
09:41 PM 55.1°F12.8°C 35.2°F1.8°C 47% 2.0 mph NW3.2 kmh NW 9.0 mph14.5 kmh 30.25 in1024.4 mb 0.00 in0.0 mm 0.00 in0.0 mm 0.00 in0.0 mm
09:46 PM 55.0°F12.8°C 35.1°F1.7°C 47% 3.4 mph NW5.5 kmh NW 8.0 mph12.9 kmh 30.25 in1024.4 mb 0.00 in0.0 mm 0.00 in0.0 mm 0.00 in0.0 mm
09:51 PM 54.9°F12.7°C 35.0°F1.7°C 47% 3.2 mph NW5.1 kmh NW 9.0 mph14.5 kmh 30.25 in1024.4 mb 0.00 in0.0 mm 0.00 in0.0 mm 0.00 in0.0 mm
09:57 PM 54.8°F12.7°C 35.4°F1.9°C 48% 2.4 mph NW3.9 kmh NW 9.0 mph14.5 kmh 30.25 in1024.4 mb 0.00 in0.0 mm 0.00 in0.0 mm 0.00 in0.0 mm
10:01 PM 54.6°F12.6°C 35.3°F1.8°C 48% 1.9 mph NNW3.1 kmh NNW 9.0 mph14.5 kmh 30.25 in1024.4 mb 0.00 in0.0 mm 0.00 in0.0 mm 0.00 in0.0 mm
10:06 PM 54.4°F12.4°C 35.6°F2.0°C 49% 2.1 mph NNW3.4 kmh NNW 9.0 mph14.5 kmh 30.25 in1024.4 mb 0.00 in0.0 mm 0.00 in0.0 mm 0.00 in0.0 mm
10:11 PM 54.3°F12.4°C 35.5°F1.9°C 49% 1.0 mph N1.6 kmh N 6.0 mph9.7 kmh 30.25 in1024.4 mb 0.00 in0.0 mm 0.00 in0.0 mm 0.00 in0.0 mm
10:16 PM 54.2°F12.3°C 35.4°F1.9°C 49% 2.7 mph NW4.3 kmh NW 6.0 mph9.7 kmh 30.26 in1024.7 mb 0.00 in0.0 mm 0.00 in0.0 mm 0.00 in0.0 mm
10:21 PM 54.0°F12.2°C 35.2°F1.8°C 49% 2.5 mph NW4.0 kmh NW 6.0 mph9.7 kmh 30.26 in1024.7 mb 0.00 in0.0 mm 0.00 in0.0 mm 0.00 in0.0 mm
10:26 PM 53.9°F12.2°C 35.1°F1.7°C 49% 1.8 mph NW2.9 kmh NW 6.0 mph9.7 kmh 30.26 in1024.7 mb 0.00 in0.0 mm 0.00 in0.0 mm 0.00 in0.0 mm
10:31 PM 53.8°F12.1°C 35.6°F2.0°C 50% 1.9 mph NW3.1 kmh NW 6.0 mph9.7 kmh 30.26 in1024.7 mb 0.00 in0.0 mm 0.00 in0.0 mm 0.00 in0.0 mm
10:37 PM 53.6°F12.0°C 35.4°F1.9°C 50% 1.6 mph NW2.6 kmh NW 6.0 mph9.7 kmh 30.26 in1024.7 mb 0.00 in0.0 mm 0.00 in0.0 mm 0.00 in0.0 mm
10:41 PM 53.6°F12.0°C 35.4°F1.9°C 50% 2.6 mph NW4.2 kmh NW 8.0 mph12.9 kmh 30.26 in1024.7 mb 0.00 in0.0 mm 0.00 in0.0 mm 0.00 in0.0 mm
10:47 PM 53.5°F11.9°C 35.3°F1.8°C 50% 2.1 mph NW3.4 kmh NW 8.0 mph12.9 kmh 30.25 in1024.4 mb 0.00 in0.0 mm 0.00 in0.0 mm 0.00 in0.0 mm
10:52 PM 53.3°F11.8°C 35.6°F2.0°C 51% 2.1 mph NW3.4 kmh NW 8.0 mph12.9 kmh 30.25 in1024.4 mb 0.00 in0.0 mm 0.00 in0.0 mm 0.00 in0.0 mm
10:57 PM 53.2°F11.8°C 35.5°F1.9°C 51% 2.3 mph NW3.7 kmh NW 7.0 mph11.3 kmh 30.25 in1024.4 mb 0.00 in0.0 mm 0.00 in0.0 mm 0.00 in0.0 mm
11:02 PM 53.0°F11.7°C 35.3°F1.8°C 51% 1.7 mph NW2.7 kmh NW 7.0 mph11.3 kmh 30.25 in1024.4 mb 0.00 in0.0 mm 0.00 in0.0 mm 0.00 in0.0 mm
11:07 PM 52.8°F11.6°C 35.7°F2.1°C 52% 1.5 mph NW2.4 kmh NW 7.0 mph11.3 kmh 30.25 in1024.4 mb 0.00 in0.0 mm 0.00 in0.0 mm 0.00 in0.0 mm
11:12 PM 52.7°F11.5°C 35.6°F2.0°C 52% 2.5 mph NW4.0 kmh NW 6.0 mph9.7 kmh 30.26 in1024.7 mb 0.00 in0.0 mm 0.00 in0.0 mm 0.00 in0.0 mm
11:17 PM 52.7°F11.5°C 35.6°F2.0°C 52% 2.1 mph NW3.4 kmh NW 6.0 mph9.7 kmh 30.26 in1024.7 mb 0.00 in0.0 mm 0.00 in0.0 mm 0.00 in0.0 mm
11:22 PM 52.5°F11.4°C 35.4°F1.9°C 52% 2.4 mph NW3.9 kmh NW 6.0 mph9.7 kmh 30.26 in1024.7 mb 0.00 in0.0 mm 0.00 in0.0 mm 0.00 in0.0 mm
11:27 PM 52.4°F11.3°C 35.3°F1.8°C 52% 1.6 mph NW2.6 kmh NW 6.0 mph9.7 kmh 30.26 in1024.7 mb 0.00 in0.0 mm 0.00 in0.0 mm 0.00 in0.0 mm
11:32 PM 52.3°F11.3°C 35.7°F2.1°C 53% 2.8 mph NNW4.5 kmh NNW 6.0 mph9.7 kmh 30.25 in1024.4 mb 0.00 in0.0 mm 0.00 in0.0 mm 0.00 in0.0 mm
11:37 PM 52.1°F11.2°C 35.5°F1.9°C 53% 1.6 mph NW2.6 kmh NW 5.0 mph8.0 kmh 30.25 in1024.4 mb 0.00 in0.0 mm 0.00 in0.0 mm 0.00 in0.0 mm
11:42 PM 52.0°F11.1°C 35.9°F2.2°C 54% 2.1 mph NW3.4 kmh NW 5.0 mph8.0 kmh 30.25 in1024.4 mb 0.00 in0.0 mm 0.00 in0.0 mm 0.00 in0.0 mm
11:47 PM 51.9°F11.1°C 35.3°F1.8°C 53% 2.2 mph NW3.5 kmh NW 5.0 mph8.0 kmh 30.25 in1024.4 mb 0.00 in0.0 mm 0.00 in0.0 mm 0.00 in0.0 mm
11:52 PM 51.9°F11.1°C 35.8°F2.1°C 54% 2.5 mph NW4.0 kmh NW 6.0 mph9.7 kmh 30.24 in1024.0 mb 0.00 in0.0 mm 0.00 in0.0 mm 0.00 in0.0 mm
11:57 PM 51.8°F11.0°C 35.7°F2.1°C 54% 2.3 mph NW3.7 kmh NW 6.0 mph9.7 kmh 30.24 in1024.0 mb 0.00 in0.0 mm 0.00 in0.0 mm 0.00 in0.0 mm